Apex, New York
Current Conditions -  °F | °C
As of 5:35 AM on Friday 19 Dec 2014 (Local Time) from KMSV Reporting Station
Overcast Overcast  
Wind Chill: -9°   Ceiling: 1900
Heat Index: -3°   Visibility: 10mi
Dew Point: -7°   Wind: 13mph
Humidity: 74%   Direction: 310°NW
Pressure: 29.95"   Gusts: NA
Location:  41.9099°N, 75.1815°W
Report Text: KMSV 191035Z AUTO 31011KT 10SM OVC019 M03/M07 A2995 RMK AO1
Loading
Personal Weather Stations






























Interactive Weather Map New forecast layout! Learn more

10-Day Weather Forecast

Advertisements
Track Severe Weather on mobile